Time;durP1;ratioP1;P1;durP2;ratioP2;P2;SDS_P1;SDS_P2;PMS_P1;PMS_P2;Temp;Humidity;BMP_temperature;BMP_pressure;BME280_temperature;BME280_humidity;BME280_pressure;Samples;Min_cycle;Max_cycle;Signal;HPM_P1;HPM_P2
2024/02/21 00:00:52;;;;;;;2.90;2.30;;;;;;;1.82;100.00;98620.66;1222488;75;2916705;-64
2024/02/21 00:03:25;;;;;;;3.60;2.55;;;;;;;1.81;100.00;98616.44;1225266;75;2918557;-63
2024/02/21 00:05:57;;;;;;;3.15;2.25;;;;;;;1.69;100.00;98615.72;1224940;75;2932155;-63
2024/02/21 00:08:30;;;;;;;4.60;3.10;;;;;;;1.41;100.00;98618.50;1225509;75;2913482;-64
2024/02/21 00:11:03;;;;;;;5.50;3.60;;;;;;;1.28;100.00;98618.16;1225033;75;2915548;-64
2024/02/21 00:13:36;;;;;;;4.75;3.50;;;;;;;1.15;100.00;98614.31;1223935;75;2982210;-63
2024/02/21 00:16:11;;;;;;;5.60;3.55;;;;;;;1.28;100.00;98612.78;1225196;75;2911941;-65
2024/02/21 00:18:44;;;;;;;5.75;4.10;;;;;;;1.06;100.00;98609.34;1225256;75;2918810;-62
2024/02/21 00:21:17;;;;;;;4.80;3.40;;;;;;;1.10;100.00;98610.09;1224001;75;2916371;-63
2024/02/21 00:23:50;;;;;;;3.95;3.05;;;;;;;1.21;100.00;98612.78;1224797;75;2933951;-62
2024/02/21 00:26:23;;;;;;;2.90;2.30;;;;;;;1.21;100.00;98610.09;1224676;75;2921263;-62
2024/02/21 00:28:56;;;;;;;3.35;2.50;;;;;;;1.15;100.00;98606.25;1225143;75;2915048;-65
2024/02/21 00:31:31;;;;;;;2.60;2.15;;;;;;;1.11;100.00;98605.47;1224767;75;2930492;-64
2024/02/21 00:34:04;;;;;;;3.35;2.50;;;;;;;0.99;100.00;98606.66;1223950;75;2927471;-63
2024/02/21 00:36:37;;;;;;;4.30;2.70;;;;;;;0.98;100.00;98600.50;1225261;75;2916818;-63
2024/02/21 00:39:10;;;;;;;2.90;2.10;;;;;;;1.09;100.00;98605.09;1225184;75;2921354;-61
2024/02/21 00:41:42;;;;;;;3.30;2.45;;;;;;;0.95;100.00;98609.34;1225556;75;2923341;-63
2024/02/21 00:44:15;;;;;;;2.70;2.10;;;;;;;1.08;100.00;98609.72;1225630;75;2915419;-64
2024/02/21 00:46:52;;;;;;;2.65;2.00;;;;;;;1.13;100.00;98609.34;1226322;75;2875378;-65
2024/02/21 00:49:25;;;;;;;2.35;1.90;;;;;;;1.20;100.00;98605.84;1225487;75;2921855;-63
2024/02/21 00:51:57;;;;;;;3.25;1.95;;;;;;;1.30;100.00;98605.06;1225257;75;2914056;-64
2024/02/21 00:54:30;;;;;;;2.40;1.80;;;;;;;1.39;100.00;98600.00;1225295;75;2918834;-64
2024/02/21 00:57:03;;;;;;;2.20;1.60;;;;;;;1.41;100.00;98594.22;1224501;75;2920269;-64
2024/02/21 00:59:36;;;;;;;2.30;1.70;;;;;;;1.47;100.00;98593.44;1225626;75;2930798;-64
2024/02/21 01:02:11;;;;;;;1.90;1.50;;;;;;;1.44;100.00;98588.84;1224957;75;2913310;-64
2024/02/21 01:04:44;;;;;;;2.00;1.50;;;;;;;1.53;100.00;98590.34;1225545;75;2917389;-63
2024/02/21 01:07:17;;;;;;;1.90;1.30;;;;;;;1.46;100.00;98589.19;1224623;75;2915925;-65
2024/02/21 01:09:50;;;;;;;1.75;1.40;;;;;;;1.41;100.00;98594.22;1225574;75;2914830;-63
2024/02/21 01:12:23;;;;;;;2.55;2.00;;;;;;;1.27;100.00;98600.44;1225255;75;2924041;-62
2024/02/21 01:14:56;;;;;;;2.60;1.90;;;;;;;1.40;100.00;98596.16;1225155;75;2913637;-64
2024/02/21 01:17:31;;;;;;;2.65;1.80;;;;;;;1.46;100.00;98594.59;1225168;75;2917194;-64
2024/02/21 01:20:05;;;;;;;4.45;2.55;;;;;;;1.32;100.00;98585.78;1225976;75;2916193;-64
2024/02/21 01:22:38;;;;;;;4.85;2.70;;;;;;;1.41;100.00;98586.13;1225935;75;2916892;-64
2024/02/21 01:25:12;;;;;;;3.50;2.40;;;;;;;1.53;100.00;98582.22;1225138;75;2917635;-64
2024/02/21 01:27:45;;;;;;;3.30;2.25;;;;;;;1.47;100.00;98584.59;1225062;75;2917932;-63
2024/02/21 01:30:18;;;;;;;2.65;2.00;;;;;;;1.61;100.00;98576.44;1224986;75;2918043;-63
2024/02/21 01:32:53;;;;;;;2.75;1.90;;;;;;;1.72;100.00;98581.75;1226138;75;2910874;-63
2024/02/21 01:35:26;;;;;;;2.35;1.75;;;;;;;1.76;100.00;98585.22;1226090;75;2918127;-66
2024/02/21 01:37:59;;;;;;;1.95;1.50;;;;;;;1.75;100.00;98589.06;1225654;75;2913772;-66
2024/02/21 01:40:31;;;;;;;2.35;1.70;;;;;;;1.80;100.00;98583.25;1225506;75;2912664;-63
2024/02/21 01:43:04;;;;;;;2.20;1.55;;;;;;;1.87;100.00;98583.22;1224993;75;2920854;-64
2024/02/21 01:45:37;;;;;;;3.05;1.95;;;;;;;1.74;100.00;98578.69;1225326;75;2918846;-65
2024/02/21 01:48:13;;;;;;;2.90;2.00;;;;;;;1.69;100.00;98590.66;1225540;75;2912351;-62
2024/02/21 01:50:46;;;;;;;4.30;2.90;;;;;;;1.58;100.00;98590.69;1225507;75;2916748;-62
2024/02/21 01:53:23;;;;;;;3.15;2.40;;;;;;;1.68;100.00;98579.09;1225695;75;2916129;-62
2024/02/21 01:55:56;;;;;;;4.40;2.85;;;;;;;1.57;100.00;98564.88;1225865;75;2920364;-63
2024/02/21 01:58:29;;;;;;;4.45;2.85;;;;;;;1.64;100.00;98562.13;1225627;75;2919280;-63
2024/02/21 02:01:02;;;;;;;4.00;2.40;;;;;;;1.88;100.00;98562.41;1225799;75;2920331;-64
2024/02/21 02:03:38;;;;;;;5.20;2.55;;;;;;;1.76;100.00;98568.25;1224903;75;2929022;-67
2024/02/21 02:06:11;;;;;;;3.75;2.75;;;;;;;1.74;100.00;98565.19;1225416;75;2914218;-63
2024/02/21 02:08:44;;;;;;;3.75;2.40;;;;;;;1.87;100.00;98553.50;1225395;75;2918227;-63
2024/02/21 02:11:19;;;;;;;3.25;2.55;;;;;;;1.89;100.00;98553.91;1224858;75;2916074;-60
2024/02/21 02:13:51;;;;;;;4.55;3.00;;;;;;;1.96;100.00;98563.13;1225328;75;2913601;-63
2024/02/21 02:16:24;;;;;;;5.75;3.85;;;;;;;1.94;100.00;98554.66;1225072;75;2924018;-65
2024/02/21 02:18:59;;;;;;;4.30;2.75;;;;;;;2.27;100.00;98555.97;1225597;75;2894279;-63
2024/02/21 02:21:40;;;;;;;5.10;3.45;;;;;;;2.20;100.00;98547.91;1225598;75;2920219;-64
2024/02/21 02:24:17;;;;;;;6.85;3.70;;;;;;;2.39;100.00;98573.63;1224884;75;2916578;-65
2024/02/21 02:26:50;;;;;;;7.95;4.45;;;;;;;2.60;100.00;98551.84;1225584;75;2915406;-63
2024/02/21 02:29:22;;;;;;;9.25;4.60;;;;;;;2.56;100.00;98548.41;1224779;75;2918582;-64
2024/02/21 02:31:56;;;;;;;7.75;4.70;;;;;;;2.58;100.00;98546.06;1225376;75;2916646;-64
2024/02/21 02:34:29;;;;;;;8.55;4.70;;;;;;;2.45;100.00;98547.72;1225392;75;2910915;-64
2024/02/21 02:37:01;;;;;;;5.90;4.70;;;;;;;2.34;100.00;98551.28;1225274;75;2920473;-63
2024/02/21 02:39:37;;;;;;;6.40;4.15;;;;;;;2.34;100.00;98545.09;1225889;75;2921962;-64
2024/02/21 02:42:10;;;;;;;6.70;3.95;;;;;;;2.29;100.00;98545.53;1225342;75;2927154;-63
2024/02/21 02:44:43;;;;;;;5.75;4.20;;;;;;;2.48;100.00;98549.63;1224482;75;2921364;-64
2024/02/21 02:47:16;;;;;;;6.45;3.70;;;;;;;2.58;100.00;98550.72;1224597;75;2914047;-64
2024/02/21 02:49:50;;;;;;;8.20;3.95;;;;;;;2.56;100.00;98545.69;1224959;75;2916483;-62
2024/02/21 02:52:23;;;;;;;5.80;3.75;;;;;;;2.67;100.00;98534.78;1225431;75;2895470;-63
2024/02/21 02:54:58;;;;;;;5.90;3.70;;;;;;;2.75;100.00;98533.56;1223980;75;2914934;-64
2024/02/21 02:57:31;;;;;;;5.25;3.80;;;;;;;2.63;100.00;98539.47;1225526;75;2920278;-65
2024/02/21 03:00:04;;;;;;;5.40;3.55;;;;;;;2.79;100.00;98528.88;1224581;75;2929609;-61
2024/02/21 03:02:37;;;;;;;3.65;3.10;;;;;;;2.98;100.00;98538.31;1224943;75;2915027;-64
2024/02/21 03:05:17;;;;;;;6.65;4.15;;;;;;;2.59;100.00;98530.59;1225743;75;2916280;-62
2024/02/21 03:07:51;;;;;;;6.85;4.55;;;;;;;2.69;100.00;98527.03;1225431;75;2918457;-64
2024/02/21 03:10:26;;;;;;;5.80;3.90;;;;;;;2.65;100.00;98529.03;1225429;75;2918192;-62
2024/02/21 03:12:59;;;;;;;5.00;3.60;;;;;;;2.63;100.00;98523.25;1224925;75;2921472;-62
2024/02/21 03:15:32;;;;;;;4.35;3.65;;;;;;;2.76;100.00;98514.22;1225044;75;2924211;-62
2024/02/21 03:18:04;;;;;;;4.45;3.15;;;;;;;2.83;100.00;98521.50;1224011;75;2926444;-63
2024/02/21 03:20:37;;;;;;;5.05;3.40;;;;;;;2.51;100.00;98517.16;1224812;75;2922582;-63
2024/02/21 03:23:10;;;;;;;5.35;3.45;;;;;;;2.69;100.00;98529.72;1224743;75;2921528;-64
2024/02/21 03:25:45;;;;;;;6.05;3.85;;;;;;;2.21;100.00;98511.63;1223338;75;2924547;-64
2024/02/21 03:28:19;;;;;;;6.25;3.40;;;;;;;2.55;100.00;98514.44;1224870;75;2923140;-63
2024/02/21 03:30:52;;;;;;;4.25;3.15;;;;;;;2.75;100.00;98520.78;1225030;75;2915181;-62
2024/02/21 03:33:25;;;;;;;5.60;3.35;;;;;;;2.54;100.00;98529.88;1224807;75;2919537;-63
2024/02/21 03:35:58;;;;;;;4.85;3.70;;;;;;;2.36;100.00;98534.69;1225251;75;2919869;-64
2024/02/21 03:38:31;;;;;;;6.40;4.65;;;;;;;2.40;100.00;98527.28;1225059;75;2921557;-63
2024/02/21 03:41:06;;;;;;;6.20;4.45;;;;;;;2.36;100.00;98540.09;1223423;75;2918842;-64
2024/02/21 03:43:41;;;;;;;7.10;4.45;;;;;;;2.45;100.00;98534.19;1225168;75;2921935;-61
2024/02/21 03:46:14;;;;;;;5.80;4.25;;;;;;;2.32;100.00;98533.94;1224833;75;2918858;-63
2024/02/21 03:48:46;;;;;;;5.85;4.10;;;;;;;2.28;100.00;98535.88;1224480;75;2925010;-63
2024/02/21 03:51:19;;;;;;;6.50;4.50;;;;;;;2.49;100.00;98524.13;1224519;75;2926793;-63
2024/02/21 03:53:52;;;;;;;6.05;3.70;;;;;;;2.56;100.00;98529.47;1224938;75;2916653;-64
2024/02/21 03:56:28;;;;;;;5.10;3.65;;;;;;;2.58;100.00;98518.28;1224583;75;2920345;-62
2024/02/21 03:59:01;;;;;;;5.05;3.60;;;;;;;2.57;100.00;98517.50;1225360;75;2920393;-64
2024/02/21 04:01:33;;;;;;;4.20;3.25;;;;;;;2.64;100.00;98509.31;1222056;75;2953387;-60
2024/02/21 04:04:07;;;;;;;4.65;3.15;;;;;;;2.69;100.00;98510.81;1223889;75;2929410;-62
2024/02/21 04:06:40;;;;;;;4.00;3.15;;;;;;;2.65;100.00;98504.69;1224603;75;2928773;-63
2024/02/21 04:09:12;;;;;;;4.80;3.45;;;;;;;2.62;100.00;98508.97;1225040;75;2925825;-64
2024/02/21 04:11:48;;;;;;;4.40;3.05;;;;;;;2.68;100.00;98501.94;1224831;75;2926503;-65
2024/02/21 04:14:21;;;;;;;3.55;2.60;;;;;;;2.78;100.00;98505.69;1224585;75;2920185;-64
2024/02/21 04:16:54;;;;;;;3.35;2.60;;;;;;;2.76;100.00;98503.41;1224463;75;2924658;-63
2024/02/21 04:19:27;;;;;;;2.95;2.30;;;;;;;2.78;100.00;98511.88;1224522;75;2922823;-64
2024/02/21 04:21:59;;;;;;;3.10;2.40;;;;;;;2.74;100.00;98502.25;1224380;75;2917137;-63
2024/02/21 04:24:32;;;;;;;2.85;2.20;;;;;;;2.82;100.00;98500.28;1223973;75;2918326;-62
2024/02/21 04:27:08;;;;;;;2.40;1.75;;;;;;;2.78;100.00;98508.41;1222880;75;2936697;-64
2024/02/21 04:29:41;;;;;;;3.65;2.10;;;;;;;2.63;100.00;98504.31;1225443;75;2918650;-63
2024/02/21 04:32:13;;;;;;;2.85;2.15;;;;;;;2.66;100.00;98501.56;1224496;75;2918755;-60
2024/02/21 04:34:46;;;;;;;2.95;2.15;;;;;;;2.73;100.00;98498.03;1224483;75;2925368;-62
2024/02/21 04:37:19;;;;;;;2.65;1.90;;;;;;;2.77;100.00;98499.53;1224973;75;2914278;-63
2024/02/21 04:39:52;;;;;;;2.55;1.80;;;;;;;2.83;99.74;98502.56;1224537;75;2917704;-62
2024/02/21 04:42:28;;;;;;;3.70;1.90;;;;;;;2.74;100.00;98496.84;1224018;75;2920176;-62
2024/02/21 04:45:01;;;;;;;2.20;1.85;;;;;;;2.67;100.00;98497.72;1225373;75;2917410;-63
2024/02/21 04:47:34;;;;;;;2.90;2.10;;;;;;;2.59;100.00;98492.78;1224481;75;2924341;-60
2024/02/21 04:50:08;;;;;;;4.15;2.50;;;;;;;2.69;100.00;98500.00;1220390;75;3091851;-63
2024/02/21 04:52:41;;;;;;;2.75;2.25;;;;;;;2.71;100.00;98487.63;1224823;75;2920872;-62
2024/02/21 04:55:13;;;;;;;2.35;1.80;;;;;;;2.71;100.00;98495.72;1224720;75;2917468;-64
2024/02/21 04:57:49;;;;;;;2.20;1.70;;;;;;;2.77;99.73;98490.66;1222642;75;2922152;-65
2024/02/21 05:00:23;;;;;;;2.75;1.90;;;;;;;2.82;98.59;98484.81;1225088;75;2920661;-63
2024/02/21 05:02:56;;;;;;;2.00;1.60;;;;;;;2.87;97.32;98491.72;1224775;75;2923618;-63
2024/02/21 05:05:29;;;;;;;2.00;1.80;;;;;;;2.86;97.63;98487.47;1224631;75;2921285;-62
2024/02/21 05:08:02;;;;;;;2.55;2.05;;;;;;;2.86;97.18;98485.56;1225558;75;2919372;-63
2024/02/21 05:10:35;;;;;;;9.15;1.60;;;;;;;2.77;98.64;98482.56;1224304;75;2915329;-61
2024/02/21 05:13:10;;;;;;;3.40;2.35;;;;;;;2.60;100.00;98481.56;1223399;75;2923464;-63
2024/02/21 05:15:43;;;;;;;2.40;1.75;;;;;;;2.85;99.27;98477.81;1224235;75;2919035;-63
2024/02/21 05:18:16;;;;;;;2.60;1.90;;;;;;;2.84;99.87;98487.09;1224606;75;2928615;-64
2024/02/21 05:20:49;;;;;;;2.00;1.65;;;;;;;2.77;100.00;98486.00;1225332;75;2916136;-63
2024/02/21 05:23:21;;;;;;;2.75;1.90;;;;;;;2.77;97.82;98488.72;1224681;75;2916856;-63
2024/02/21 05:25:54;;;;;;;2.55;1.75;;;;;;;2.69;99.64;98495.34;1224044;75;2923851;-62
2024/02/21 05:28:30;;;;;;;8.45;4.20;;;;;;;2.37;100.00;98490.25;1223344;75;2917544;-62
2024/02/21 05:31:03;;;;;;;10.70;6.05;;;;;;;2.63;100.00;98490.81;1223980;75;2924347;-65
2024/02/21 05:33:35;;;;;;;6.25;4.40;;;;;;;2.72;100.00;98491.09;1224228;75;2929433;-62
2024/02/21 05:36:09;;;;;;;10.10;7.40;;;;;;;2.71;100.00;98482.22;1225042;75;2921425;-61
2024/02/21 05:38:42;;;;;;;7.70;6.00;;;;;;;2.69;100.00;98486.47;1218989;75;3269400;-63
2024/02/21 05:41:15;;;;;;;11.60;6.80;;;;;;;2.44;100.00;98482.09;1223830;75;2921389;-61
2024/02/21 05:43:51;;;;;;;7.40;5.65;;;;;;;2.40;100.00;98477.88;1223482;75;2920426;-61
2024/02/21 05:46:24;;;;;;;8.25;5.80;;;;;;;2.58;100.00;98483.13;1223281;75;2950801;-62
2024/02/21 05:48:57;;;;;;;6.10;5.10;;;;;;;2.51;100.00;98473.16;1223072;75;2923030;-61
2024/02/21 05:51:30;;;;;;;5.65;4.30;;;;;;;2.51;100.00;98482.03;1223637;75;2917196;-61
2024/02/21 05:54:02;;;;;;;7.50;5.20;;;;;;;2.37;100.00;98474.06;1224359;75;2921519;-61
2024/02/21 05:56:35;;;;;;;11.95;7.40;;;;;;;2.11;100.00;98476.19;1224878;75;2917588;-63
2024/02/21 05:59:11;;;;;;;11.00;7.15;;;;;;;1.95;100.00;98485.97;1224439;75;2913492;-62
2024/02/21 06:01:44;;;;;;;10.80;6.50;;;;;;;1.98;100.00;98485.19;1224436;67;2923994;-61
2024/02/21 06:04:17;;;;;;;7.70;5.10;;;;;;;2.32;100.00;98477.94;1224354;75;2919815;-63
2024/02/21 06:06:49;;;;;;;6.35;4.40;;;;;;;2.38;100.00;98480.22;1224992;75;2925286;-60
2024/02/21 06:09:22;;;;;;;5.45;4.00;;;;;;;2.18;100.00;98482.72;1224476;75;2920536;-62
2024/02/21 06:11:55;;;;;;;5.00;3.05;;;;;;;2.15;100.00;98472.72;1224676;75;2921858;-63
2024/02/21 06:14:30;;;;;;;4.10;2.60;;;;;;;2.11;100.00;98468.09;1224588;75;2919274;-64
2024/02/21 06:17:03;;;;;;;4.60;2.90;;;;;;;2.17;100.00;98462.28;1224626;75;2923078;-63
2024/02/21 06:19:36;;;;;;;3.65;2.85;;;;;;;2.26;100.00;98460.66;1224595;75;2922514;-62
2024/02/21 06:22:09;;;;;;;3.05;2.30;;;;;;;2.26;100.00;98465.25;1224394;75;2922966;-63
2024/02/21 06:24:43;;;;;;;4.25;3.00;;;;;;;2.26;100.00;98465.25;1223959;75;2920981;-62
2024/02/21 06:27:17;;;;;;;2.90;2.20;;;;;;;2.24;100.00;98468.38;1224478;75;2920614;-63
2024/02/21 06:29:53;;;;;;;4.10;2.60;;;;;;;2.21;100.00;98471.88;1224812;75;2925406;-61
2024/02/21 06:32:25;;;;;;;4.85;2.40;;;;;;;2.34;100.00;98467.50;1224348;75;2919574;-64
2024/02/21 06:34:58;;;;;;;2.75;1.95;;;;;;;2.42;100.00;98473.63;1224547;75;2917808;-64
2024/02/21 06:37:32;;;;;;;3.65;2.50;;;;;;;2.42;100.00;98470.16;1224359;75;2919678;-62
2024/02/21 06:40:04;;;;;;;5.50;2.95;;;;;;;2.62;100.00;98484.63;1223630;75;2922441;-63
2024/02/21 06:42:37;;;;;;;3.95;2.85;;;;;;;2.70;100.00;98483.38;1220855;75;3068012;-62
2024/02/21 06:45:13;;;;;;;5.40;3.60;;;;;;;2.83;100.00;98480.16;1223693;75;2926739;-64
2024/02/21 06:47:47;;;;;;;3.95;2.95;;;;;;;2.91;100.00;98481.59;1223416;75;2930144;-63
2024/02/21 06:50:20;;;;;;;7.80;5.30;;;;;;;2.87;100.00;98487.06;1224544;75;2921023;-65
2024/02/21 06:52:53;;;;;;;7.30;5.25;;;;;;;3.05;100.00;98494.97;1224154;75;2929716;-63
2024/02/21 06:55:26;;;;;;;6.95;4.85;;;;;;;3.26;100.00;98488.53;1224748;75;2922156;-66
2024/02/21 06:57:58;;;;;;;7.10;4.70;;;;;;;3.51;100.00;98496.34;1223772;75;2916815;-62
2024/02/21 07:00:34;;;;;;;6.00;4.10;;;;;;;3.51;99.84;98496.34;1224857;75;2918043;-63
2024/02/21 07:03:07;;;;;;;12.20;5.75;;;;;;;3.37;100.00;98499.25;1222869;75;2933237;-64
2024/02/21 07:05:40;;;;;;;8.55;4.85;;;;;;;3.76;96.92;98500.66;1224325;75;2926893;-64
2024/02/21 07:08:13;;;;;;;6.40;4.25;;;;;;;3.96;93.76;98493.38;1223777;75;2926576;-63
2024/02/21 07:10:46;;;;;;;6.55;4.10;;;;;;;4.08;92.34;98499.41;1224042;75;2930331;-63
2024/02/21 07:13:18;;;;;;;5.45;3.60;;;;;;;4.19;91.92;98497.31;1222489;75;2940903;-66
2024/02/21 07:15:54;;;;;;;6.00;3.60;;;;;;;4.21;91.11;98486.78;1216635;75;2924746;-62
2024/02/21 07:18:27;;;;;;;6.50;4.55;;;;;;;4.21;89.68;98487.59;1223356;75;2920168;-63
2024/02/21 07:21:00;;;;;;;6.30;4.20;;;;;;;4.53;88.84;98497.13;1224313;75;2923943;-65
2024/02/21 07:23:32;;;;;;;5.60;3.80;;;;;;;4.66;88.27;98489.91;1224228;75;2923573;-64
2024/02/21 07:26:05;;;;;;;6.00;3.85;;;;;;;4.76;86.49;98487.41;1223515;75;2924620;-64
2024/02/21 07:28:38;;;;;;;8.25;4.90;;;;;;;4.88;86.13;98486.78;1224333;75;2920185;-63
2024/02/21 07:31:14;;;;;;;7.90;5.15;;;;;;;4.88;85.97;98479.44;1194029;75;5377956;-63
2024/02/21 07:33:46;;;;;;;7.00;4.80;;;;;;;5.15;84.99;98486.66;1224262;75;2922797;-63
2024/02/21 07:36:32;;;;;;;7.65;4.45;;;;;;;5.17;84.05;98478.88;1223757;75;2918033;-63
2024/02/21 07:39:06;;;;;;;6.30;3.90;;;;;;;5.23;83.21;98474.47;1224906;75;2922568;-65
2024/02/21 07:41:40;;;;;;;9.20;4.30;;;;;;;5.02;83.23;98475.66;1224501;75;2914962;-63
2024/02/21 07:44:12;;;;;;;7.50;4.55;;;;;;;5.04;82.31;98469.81;1222952;75;2982113;-61
2024/02/21 07:46:48;;;;;;;5.60;3.60;;;;;;;5.38;80.95;98474.94;1184762;75;6035966;-64
2024/02/21 07:49:21;;;;;;;4.75;3.25;;;;;;;5.45;80.73;98469.34;1224766;75;2917731;-62
2024/02/21 07:51:53;;;;;;;4.00;2.90;;;;;;;5.64;79.97;98464.31;1224115;75;2920476;-64
2024/02/21 07:54:26;;;;;;;5.00;3.30;;;;;;;5.64;80.12;98462.34;1223168;75;2923133;-63
2024/02/21 07:56:59;;;;;;;5.75;3.45;;;;;;;5.24;78.98;98456.22;1223606;75;2926134;-63
2024/02/21 07:59:33;;;;;;;10.00;5.70;;;;;;;5.06;80.02;98456.59;1225055;75;2914302;-64
2024/02/21 08:02:09;;;;;;;7.15;4.90;;;;;;;5.59;80.13;98460.13;1224523;75;2936688;-62
2024/02/21 08:04:42;;;;;;;5.95;4.30;;;;;;;6.23;78.49;98448.97;1224356;75;2917949;-63
2024/02/21 08:07:15;;;;;;;5.60;4.05;;;;;;;6.71;76.17;98450.06;1224509;75;2925622;-64
2024/02/21 08:09:48;;;;;;;6.60;3.45;;;;;;;6.75;71.97;98440.59;1221636;75;2916644;-65
2024/02/21 08:12:20;;;;;;;6.65;3.70;;;;;;;8.15;70.63;98443.88;1222745;75;2959505;-63
2024/02/21 08:14:53;;;;;;;4.85;2.80;;;;;;;8.33;67.30;98446.78;1223808;75;2922795;-64
2024/02/21 08:17:29;;;;;;;7.25;4.20;;;;;;;7.92;68.90;98443.03;1223786;75;2939127;-63
2024/02/21 08:20:02;;;;;;;6.90;3.55;;;;;;;8.18;66.98;98438.31;1224445;75;2922210;-63
2024/02/21 08:22:35;;;;;;;6.95;3.95;;;;;;;7.75;66.97;98441.63;1223208;75;2923572;-65
2024/02/21 08:25:09;;;;;;;7.20;3.60;;;;;;;8.11;65.89;98433.09;1224385;75;2923697;-64
2024/02/21 08:27:42;;;;;;;5.20;2.50;;;;;;;8.99;61.20;98435.94;1225030;75;2916295;-65
2024/02/21 08:30:16;;;;;;;4.80;2.35;;;;;;;8.96;61.89;98436.81;1224823;75;2921770;-62
2024/02/21 08:32:53;;;;;;;5.75;2.75;;;;;;;8.60;62.26;98435.34;1223196;75;2923936;-64
2024/02/21 08:35:26;;;;;;;4.00;2.20;;;;;;;9.29;59.55;98445.38;1224202;75;2925938;-63
2024/02/21 08:37:59;;;;;;;4.10;2.15;;;;;;;8.83;58.69;98434.16;1224583;75;2932986;-65
2024/02/21 08:40:34;;;;;;;6.10;2.95;;;;;;;7.96;61.13;98432.78;1224619;75;2916041;-66
2024/02/21 08:43:07;;;;;;;5.15;2.75;;;;;;;8.24;60.37;98435.78;1224380;75;2921870;-66
2024/02/21 08:45:41;;;;;;;4.65;2.50;;;;;;;7.98;61.13;98433.09;1224885;75;2921305;-63
2024/02/21 08:48:16;;;;;;;5.30;2.00;;;;;;;8.25;61.25;98429.09;1224206;75;2923594;-61
2024/02/21 08:50:49;;;;;;;4.40;2.30;;;;;;;7.95;62.88;98422.31;1222971;75;2923803;-65
2024/02/21 08:53:22;;;;;;;3.70;2.35;;;;;;;7.85;62.37;98422.22;1224033;75;2924730;-64
2024/02/21 08:55:54;;;;;;;2.40;1.50;;;;;;;8.04;61.91;98423.16;1223000;75;2919053;-62
2024/02/21 08:58:27;;;;;;;3.50;1.95;;;;;;;8.00;61.68;98424.47;1224198;75;2928024;-64
2024/02/21 09:01:01;;;;;;;3.40;2.00;;;;;;;7.53;62.26;98422.44;1224364;75;2923657;-63
2024/02/21 09:03:38;;;;;;;4.90;2.30;;;;;;;7.87;62.69;98430.72;1224171;75;2921951;-64
2024/02/21 09:06:12;;;;;;;3.15;1.80;;;;;;;7.90;62.38;98429.06;1223622;75;2924649;-63
2024/02/21 09:08:45;;;;;;;2.85;2.00;;;;;;;8.02;61.79;98427.53;1223243;75;2929621;-64
2024/02/21 09:11:18;;;;;;;4.75;2.40;;;;;;;8.09;61.22;98419.88;1224266;75;2917203;-65
2024/02/21 09:13:51;;;;;;;4.40;2.15;;;;;;;8.28;60.90;98415.34;1224378;75;2920289;-64
2024/02/21 09:16:24;;;;;;;3.60;1.95;;;;;;;8.77;60.42;98410.59;1223187;75;2929168;-63
2024/02/21 09:19:00;;;;;;;3.20;1.35;;;;;;;8.89;59.91;98412.50;1223344;75;2929336;-66
2024/02/21 09:21:33;;;;;;;3.50;2.00;;;;;;;8.80;59.57;98412.44;1221077;75;2931495;-63
2024/02/21 09:24:06;;;;;;;3.90;2.25;;;;;;;8.45;60.32;98407.81;1116190;75;8180526;-64
2024/02/21 09:26:42;;;;;;;4.25;2.45;;;;;;;8.52;59.16;98399.38;1152643;75;5837424;-65
2024/02/21 09:29:15;;;;;;;3.67;2.10;;;;;;;8.94;59.00;98403.72;1164152;75;5385418;-62
2024/02/21 09:31:53;;;;;;;3.40;1.90;;;;;;;9.11;59.01;98404.28;1204480;75;4067153;-66
2024/02/21 09:34:31;;;;;;;4.10;2.10;;;;;;;9.23;58.92;98400.69;1135428;75;10203640;-61
2024/02/21 09:37:03;;;;;;;4.20;2.00;;;;;;;9.59;58.12;98396.59;1222343;75;2924010;-64
2024/02/21 09:39:36;;;;;;;4.55;2.60;;;;;;;8.64;59.29;98389.59;1223220;75;2964586;-62
2024/02/21 09:42:14;;;;;;;6.10;2.95;;;;;;;8.74;58.66;98387.69;1223543;75;2953333;-64
2024/02/21 09:44:49;;;;;;;3.45;2.20;;;;;;;9.26;58.50;98388.91;1221637;75;2921037;-64
2024/02/21 09:47:28;;;;;;;3.65;2.05;;;;;;;9.43;57.30;98383.97;1223164;75;2934225;-65
2024/02/21 09:50:08;;;;;;;2.50;1.60;;;;;;;9.82;56.00;98387.09;1223510;75;2922749;-61
2024/02/21 09:52:41;;;;;;;3.00;1.55;;;;;;;10.08;56.63;98384.09;1223784;75;2919829;-63
2024/02/21 09:55:16;;;;;;;3.60;1.75;;;;;;;9.80;55.76;98367.66;1222813;75;2925398;-65
2024/02/21 09:57:49;;;;;;;3.35;1.90;;;;;;;9.63;55.83;98372.63;1224264;75;2925261;-64
2024/02/21 10:00:24;;;;;;;4.60;1.50;;;;;;;9.89;56.65;98369.66;1224493;75;2919592;-63
2024/02/21 10:02:59;;;;;;;2.50;1.45;;;;;;;10.30;56.20;98367.59;1224253;75;2926484;-63
2024/02/21 10:05:35;;;;;;;2.35;1.30;;;;;;;10.28;55.71;98372.72;1223367;75;2927659;-62
2024/02/21 10:08:09;;;;;;;6.45;1.85;;;;;;;9.34;57.33;98362.06;1223711;75;2927540;-64
2024/02/21 10:10:49;;;;;;;3.50;1.95;;;;;;;10.09;55.84;98361.00;1224587;75;2924399;-62
2024/02/21 10:13:30;;;;;;;4.70;2.00;;;;;;;9.75;56.69;98362.78;1224855;75;2920767;-64
2024/02/21 10:16:09;;;;;;;3.65;1.90;;;;;;;10.24;54.41;98357.19;1223581;75;2926026;-62
2024/02/21 10:18:42;;;;;;;3.00;1.90;;;;;;;10.07;55.61;98366.91;1223805;75;2921740;-65
2024/02/21 10:21:17;;;;;;;4.50;1.95;;;;;;;9.99;55.44;98352.78;1224340;75;2927148;-61
2024/02/21 10:37:07;;;;;;;3.15;1.25;;;;;;;9.83;55.98;98339.38;8;20100594;23100522;-60
2024/02/21 10:39:42;;;;;;;4.85;3.00;;;;;;;10.03;55.87;98336.25;1224333;75;2928326;-63
2024/02/21 10:42:16;;;;;;;5.00;2.30;;;;;;;9.81;55.97;98333.63;1224599;75;2922560;-65
2024/02/21 10:44:54;;;;;;;4.80;1.70;;;;;;;10.00;55.71;98328.94;1223080;75;2920799;-66
2024/02/21 10:47:28;;;;;;;4.30;2.00;;;;;;;10.06;55.31;98313.44;1224718;75;2918318;-64
2024/02/21 10:50:07;;;;;;;3.40;1.80;;;;;;;10.42;56.00;98307.22;1225174;75;2922372;-63
2024/02/21 10:52:53;;;;;;;3.50;2.00;;;;;;;10.61;54.65;98304.44;1225197;75;2921536;-62
2024/02/21 10:55:35;;;;;;;5.30;2.00;;;;;;;10.73;54.76;98300.00;1224085;75;2922186;-66
2024/02/21 10:58:08;;;;;;;3.65;1.90;;;;;;;11.15;53.55;98285.53;1225015;75;2919020;-65
2024/02/21 11:00:42;;;;;;;4.00;2.20;;;;;;;10.80;54.42;98291.44;1221879;75;2999204;-65
2024/02/21 11:03:15;;;;;;;4.50;2.35;;;;;;;11.52;53.29;98277.88;1224396;75;2925310;-64
2024/02/21 11:05:49;;;;;;;2.45;1.50;;;;;;;13.20;50.62;98271.88;1224322;75;2925805;-64
2024/02/21 11:08:25;;;;;;;4.55;1.90;;;;;;;13.56;48.75;98269.09;1224470;75;2924398;-67
2024/02/21 11:11:02;;;;;;;3.75;1.90;;;;;;;14.67;47.53;98259.75;1223024;75;2920572;-63
2024/02/21 11:13:35;;;;;;;3.90;2.10;;;;;;;13.95;47.07;98253.06;1223439;75;2940421;-63
2024/02/21 11:16:25;;;;;;;4.55;1.70;;;;;;;15.18;45.61;98255.38;1224633;75;2915358;-64
2024/02/21 11:19:10;;;;;;;3.55;1.65;;;;;;;15.23;44.43;98249.13;1224777;75;2915998;-64
2024/02/21 11:21:44;;;;;;;3.60;1.45;;;;;;;14.02;46.99;98233.38;1224318;75;2920037;-64
2024/02/21 11:24:30;;;;;;;3.15;1.50;;;;;;;13.84;46.56;98230.91;1224587;75;2925106;-65
2024/02/21 11:27:15;;;;;;;3.45;1.70;;;;;;;14.45;46.79;98243.75;1224614;75;2945958;-63
2024/02/21 11:29:50;;;;;;;5.55;1.75;;;;;;;14.60;45.38;98225.16;1224729;75;2946566;-63
2024/02/21 11:32:24;;;;;;;2.70;1.70;;;;;;;15.41;44.89;98223.13;1224209;75;2922495;-64
2024/02/21 11:35:01;;;;;;;5.75;2.00;;;;;;;15.80;42.62;98221.78;1222705;75;2926509;-66
2024/02/21 11:37:36;;;;;;;2.45;1.45;;;;;;;16.98;41.72;98208.84;1223281;75;2921539;-66
2024/02/21 11:40:13;;;;;;;2.80;1.50;;;;;;;17.74;39.79;98204.03;1223471;75;2924934;-64
2024/02/21 11:42:46;;;;;;;2.80;1.30;;;;;;;16.27;41.91;98202.81;1223928;75;2928601;-65
2024/02/21 11:45:21;;;;;;;2.65;1.35;;;;;;;17.50;41.43;98179.72;1223427;75;2927288;-63
2024/02/21 11:47:54;;;;;;;4.25;1.45;;;;;;;17.96;39.29;98178.25;1223331;75;2922693;-64
2024/02/21 11:50:27;;;;;;;4.65;1.60;;;;;;;16.60;40.66;98169.66;1224887;75;2918455;-64
2024/02/21 11:53:00;;;;;;;1.90;1.10;;;;;;;16.27;40.74;98172.44;1224355;75;2922193;-62
2024/02/21 11:55:36;;;;;;;2.95;1.40;;;;;;;15.70;42.53;98166.06;1224648;75;2923805;-65
2024/02/21 11:58:11;;;;;;;2.10;1.45;;;;;;;16.08;42.26;98156.34;1224032;75;2922376;-64
2024/02/21 12:00:44;;;;;;;3.95;2.10;;;;;;;15.09;42.20;98142.50;1224380;75;2919537;-65
2024/02/21 12:03:17;;;;;;;1.45;1.10;;;;;;;16.29;41.93;98128.47;1224157;75;2920311;-65